createdAt,value
2019-02-09T00:02:09.459Z,8.23
2019-02-09T00:04:40.129Z,8.53
2019-02-09T00:07:10.892Z,7.13
2019-02-09T00:09:41.159Z,7.03
2019-02-09T00:12:11.648Z,7.33
2019-02-09T00:14:42.241Z,7.70
2019-02-09T00:17:12.518Z,7.67
2019-02-09T00:19:43.021Z,9.60
2019-02-09T00:22:13.707Z,6.73
2019-02-09T00:24:44.065Z,6.93
2019-02-09T00:27:14.359Z,6.07
2019-02-09T00:29:46.600Z,5.93
2019-02-09T00:32:17.238Z,5.50
2019-02-09T00:34:49.079Z,7.27
2019-02-09T00:37:20.540Z,7.10
2019-02-09T00:39:50.866Z,8.27
2019-02-09T00:42:21.644Z,6.93
2019-02-09T00:44:51.976Z,7.17
2019-02-09T00:47:22.239Z,7.90
2019-02-09T00:49:53.089Z,8.10
2019-02-09T00:52:23.411Z,8.70
2019-02-09T00:54:53.825Z,7.80
2019-02-09T00:57:24.931Z,7.57
2019-02-09T00:59:55.697Z,6.90
2019-02-09T01:02:25.962Z,6.73
2019-02-09T01:04:56.924Z,7.60
2019-02-09T01:07:27.314Z,6.77
2019-02-09T01:09:58.747Z,8.63
2019-02-09T01:12:29.179Z,9.87
2019-02-09T01:14:59.601Z,9.87
2019-02-09T01:17:30.307Z,9.47
2019-02-09T01:20:00.903Z,9.57
2019-02-09T01:22:31.179Z,8.73
2019-02-09T01:25:01.586Z,9.70
2019-02-09T01:27:32.109Z,9.33
2019-02-09T01:30:03.024Z,8.27
2019-02-09T01:32:33.478Z,7.63
2019-02-09T01:35:04.742Z,8.10
2019-02-09T01:37:35.033Z,8.80
2019-02-09T01:40:07.514Z,8.30
2019-02-09T01:42:37.902Z,8.17
2019-02-09T01:45:10.335Z,7.60
2019-02-09T01:47:40.967Z,7.43
2019-02-09T01:50:12.875Z,7.23
2019-02-09T01:52:43.185Z,7.50
2019-02-09T01:55:14.220Z,8.57
2019-02-09T01:57:44.581Z,9.00
2019-02-09T02:00:17.861Z,9.30
2019-02-09T02:02:49.362Z,8.73
2019-02-09T02:05:22.415Z,8.10
2019-02-09T02:07:53.175Z,7.53
2019-02-09T02:10:26.994Z,7.50
2019-02-09T02:12:57.628Z,8.13
2019-02-09T02:15:28.985Z,8.13
2019-02-09T02:17:59.535Z,8.40
2019-02-09T02:20:30.703Z,8.23
2019-02-09T02:23:01.081Z,8.07
2019-02-09T02:25:31.375Z,7.67
2019-02-09T02:28:01.653Z,8.07
2019-02-09T02:30:34.061Z,8.27
2019-02-09T02:33:05.018Z,7.77
2019-02-09T02:35:35.578Z,8.27
2019-02-09T02:38:06.813Z,8.80
2019-02-09T02:40:37.832Z,8.13
2019-02-09T02:43:08.497Z,7.93
2019-02-09T02:45:38.875Z,7.20
2019-02-09T02:48:09.302Z,8.10
2019-02-09T02:50:39.919Z,8.00
2019-02-09T02:53:10.365Z,7.90
2019-02-09T02:55:40.690Z,7.70
2019-02-09T02:58:11.428Z,8.53
2019-02-09T03:00:42.129Z,9.00
2019-02-09T03:03:12.509Z,8.40
2019-02-09T03:05:43.207Z,7.17
2019-02-09T03:08:14.098Z,7.60
2019-02-09T03:10:44.419Z,7.50
2019-02-09T03:13:15.006Z,7.73
2019-02-09T03:15:45.351Z,8.13
2019-02-09T03:18:16.116Z,8.47
2019-02-09T03:20:46.582Z,8.03
2019-02-09T03:23:16.867Z,8.50
2019-02-09T03:25:47.651Z,8.37
2019-02-09T03:28:18.536Z,8.67
2019-02-09T03:30:49.361Z,7.90
2019-02-09T03:33:19.930Z,8.73
2019-02-09T03:35:50.659Z,7.47
2019-02-09T03:38:20.983Z,8.63
2019-02-09T03:40:51.349Z,7.50
2019-02-09T03:43:21.955Z,7.87
2019-02-09T03:45:52.282Z,8.23
2019-02-09T03:48:22.607Z,8.20
2019-02-09T03:50:53.207Z,8.00
2019-02-09T03:53:23.766Z,7.50
2019-02-09T03:55:54.048Z,9.00
2019-02-09T03:58:24.735Z,8.43
2019-02-09T04:00:56.003Z,14.50
2019-02-09T04:03:26.305Z,9.87
2019-02-09T04:05:57.002Z,12.33
2019-02-09T04:08:27.676Z,12.03
2019-02-09T04:10:57.954Z,11.00
2019-02-09T04:13:28.532Z,10.80
2019-02-09T04:15:59.148Z,9.50
2019-02-09T04:18:29.640Z,7.53
2019-02-09T04:21:00.592Z,8.13
2019-02-09T04:23:31.098Z,7.37
2019-02-09T04:26:01.861Z,9.47
2019-02-09T04:28:32.767Z,8.07
2019-02-09T04:31:05.859Z,10.03
2019-02-09T04:33:35.291Z,10.17
2019-02-09T04:36:06.135Z,8.87
2019-02-09T04:38:36.726Z,8.73
2019-02-09T04:41:07.011Z,7.87
2019-02-09T04:43:37.651Z,9.57
2019-02-09T04:46:08.912Z,9.10
2019-02-09T04:48:39.168Z,8.87
2019-02-09T04:51:09.915Z,8.50
2019-02-09T04:53:40.374Z,9.70
2019-02-09T04:56:10.996Z,9.23
2019-02-09T04:58:41.421Z,10.73
2019-02-09T05:01:14.082Z,9.73
2019-02-09T05:03:44.127Z,9.93
2019-02-09T05:06:14.445Z,9.87
2019-02-09T05:08:44.757Z,11.20
2019-02-09T05:11:15.410Z,10.27
2019-02-09T05:13:46.048Z,8.97
2019-02-09T05:16:16.307Z,9.23
2019-02-09T05:18:47.185Z,9.50
2019-02-09T05:21:18.097Z,8.60
2019-02-09T05:23:48.597Z,8.03
2019-02-09T05:26:18.832Z,9.60
2019-02-09T05:28:49.169Z,9.03
2019-02-09T05:31:23.212Z,9.50
2019-02-09T05:33:52.289Z,9.63
2019-02-09T05:36:22.557Z,9.10
2019-02-09T05:38:53.359Z,10.07
2019-02-09T05:41:23.742Z,9.43
2019-02-09T05:43:54.039Z,9.43
2019-02-09T05:46:24.420Z,10.47
2019-02-09T05:48:55.047Z,10.33
2019-02-09T05:51:25.488Z,9.90
2019-02-09T05:53:55.983Z,11.43
2019-02-09T05:56:26.269Z,11.60
2019-02-09T05:58:56.909Z,11.73
2019-02-09T06:01:32.455Z,10.27
2019-02-09T06:03:59.737Z,11.30
2019-02-09T06:06:30.787Z,11.63
2019-02-09T06:09:01.479Z,12.07
2019-02-09T06:11:31.983Z,15.80
2019-02-09T06:14:02.534Z,15.37
2019-02-09T06:16:33.119Z,13.97
2019-02-09T06:19:03.430Z,12.40
2019-02-09T06:21:33.895Z,11.53
2019-02-09T06:24:04.863Z,12.07
2019-02-09T06:26:35.451Z,11.43
2019-02-09T06:29:06.106Z,12.73
2019-02-09T06:31:40.807Z,12.27
2019-02-09T06:34:09.574Z,12.33
2019-02-09T06:36:40.165Z,11.93
2019-02-09T06:39:10.487Z,11.40
2019-02-09T06:41:40.770Z,14.03
2019-02-09T06:44:11.189Z,12.47
2019-02-09T06:46:42.572Z,14.67
2019-02-09T06:49:13.004Z,15.50
2019-02-09T06:51:43.864Z,15.20
2019-02-09T06:54:14.391Z,16.03
2019-02-09T06:56:44.698Z,16.97
2019-02-09T06:59:15.529Z,17.93
2019-02-09T07:01:48.678Z,17.73
2019-02-09T07:04:19.370Z,17.10
2019-02-09T07:06:49.747Z,17.53
2019-02-09T07:09:20.302Z,17.33
2019-02-09T07:11:50.963Z,23.10
2019-02-09T07:14:21.359Z,19.10
2019-02-09T07:16:51.664Z,22.40
2019-02-09T07:19:22.356Z,19.30
2019-02-09T07:21:53.151Z,19.30
2019-02-09T07:24:23.524Z,20.10
2019-02-09T07:26:54.248Z,11.37
2019-02-09T07:29:25.002Z,8.23
2019-02-09T07:31:56.522Z,6.47
2019-02-09T07:34:27.053Z,11.43
2019-02-09T07:36:57.370Z,10.43
2019-02-09T07:39:27.753Z,9.07
2019-02-09T07:41:58.077Z,6.17
2019-02-09T07:44:28.396Z,6.57
2019-02-09T07:46:59.095Z,5.73
2019-02-09T07:49:29.834Z,6.77
2019-02-09T07:52:00.324Z,6.07
2019-02-09T07:54:30.988Z,7.37
2019-02-09T07:57:01.628Z,7.27
2019-02-09T07:59:31.920Z,5.97
2019-02-09T08:02:04.517Z,7.40
2019-02-09T08:04:34.955Z,7.93
2019-02-09T08:07:05.489Z,7.00
2019-02-09T08:09:35.765Z,7.23
2019-02-09T08:12:07.571Z,6.57
2019-02-09T08:14:37.975Z,6.67
2019-02-09T08:17:08.324Z,5.00
2019-02-09T08:19:38.949Z,6.07
2019-02-09T08:22:09.655Z,6.63
2019-02-09T08:24:39.946Z,5.80
2019-02-09T08:27:10.544Z,5.83
2019-02-09T08:29:41.214Z,6.40
2019-02-09T08:32:13.035Z,5.73
2019-02-09T08:34:43.515Z,5.17
2019-02-09T08:37:13.846Z,6.80
2019-02-09T08:39:44.520Z,6.67
2019-02-09T08:42:15.941Z,6.70
2019-02-09T08:44:46.364Z,6.20
2019-02-09T08:47:17.089Z,6.40
2019-02-09T08:49:47.862Z,6.10
2019-02-09T08:52:18.262Z,8.20
2019-02-09T08:54:48.936Z,8.20
2019-02-09T08:57:19.571Z,8.63
2019-02-09T08:59:50.058Z,7.57
2019-02-09T09:02:20.933Z,6.30
2019-02-09T09:04:51.321Z,8.53
2019-02-09T09:07:21.625Z,7.47
2019-02-09T09:09:52.309Z,6.73
2019-02-09T09:12:22.594Z,6.73
2019-02-09T09:14:53.325Z,5.73
2019-02-09T09:17:24.008Z,6.03
2019-02-09T09:19:54.274Z,6.17
2019-02-09T09:22:24.862Z,6.40
2019-02-09T09:24:55.607Z,8.17
2019-02-09T09:27:26.264Z,7.03
2019-02-09T09:29:56.645Z,7.03
2019-02-09T09:32:28.824Z,7.67
2019-02-09T09:34:59.227Z,7.43
2019-02-09T09:37:29.758Z,8.03
2019-02-09T09:40:00.401Z,7.30
2019-02-09T09:42:30.856Z,8.17
2019-02-09T09:45:01.569Z,8.57
2019-02-09T09:47:31.885Z,9.87
2019-02-09T09:50:02.187Z,11.97
2019-02-09T09:52:33.139Z,12.07
2019-02-09T09:55:03.437Z,11.67
2019-02-09T09:57:33.726Z,10.37
2019-02-09T10:00:04.690Z,10.73
2019-02-09T10:02:36.653Z,9.97
2019-02-09T10:05:08.387Z,10.20
2019-02-09T10:07:39.247Z,10.50
2019-02-09T10:10:12.291Z,10.63
2019-02-09T10:12:42.680Z,10.00
2019-02-09T10:15:15.148Z,11.03
2019-02-09T10:17:45.434Z,11.80
2019-02-09T10:20:18.572Z,10.97
2019-02-09T10:22:49.294Z,10.33
2019-02-09T10:25:20.015Z,10.57
2019-02-09T10:27:51.180Z,10.07
2019-02-09T10:30:23.576Z,9.67
2019-02-09T10:32:53.994Z,11.67
2019-02-09T10:35:24.924Z,11.87
2019-02-09T10:37:55.779Z,13.03
2019-02-09T10:40:28.294Z,14.73
2019-02-09T10:42:59.302Z,15.90
2019-02-09T10:45:30.538Z,14.63
2019-02-09T10:48:01.583Z,16.57
2019-02-09T10:50:41.342Z,13.83
2019-02-09T10:53:11.869Z,16.80
2019-02-09T10:55:42.806Z,14.93
2019-02-09T10:58:13.424Z,21.10
2019-02-09T11:00:52.665Z,17.13
2019-02-09T11:03:23.433Z,16.67
2019-02-09T11:05:54.269Z,16.27
2019-02-09T11:08:24.858Z,15.93
2019-02-09T11:10:55.164Z,15.90
2019-02-09T11:13:25.783Z,16.07
2019-02-09T11:15:56.110Z,15.60
2019-02-09T11:18:26.540Z,15.20
2019-02-09T11:20:56.871Z,15.00
2019-02-09T11:23:27.719Z,15.77
2019-02-09T11:25:58.433Z,15.03
2019-02-09T11:28:28.824Z,15.87
2019-02-09T11:30:59.125Z,15.90
2019-02-09T11:33:29.987Z,17.37
2019-02-09T11:36:00.275Z,16.67
2019-02-09T11:38:30.605Z,17.57
2019-02-09T11:41:01.267Z,19.80
2019-02-09T11:43:31.905Z,15.57
2019-02-09T11:46:02.188Z,15.47
2019-02-09T11:48:32.811Z,17.43
2019-02-09T11:51:03.125Z,16.60
2019-02-09T11:53:33.733Z,16.27
2019-02-09T11:56:04.235Z,16.93
2019-02-09T11:58:34.567Z,15.93
2019-02-09T12:01:06.419Z,16.37
2019-02-09T12:03:37.674Z,16.13
2019-02-09T12:06:08.321Z,18.80
2019-02-09T12:08:39.315Z,17.43
2019-02-09T12:11:10.066Z,17.17
2019-02-09T12:13:40.404Z,17.80
2019-02-09T12:16:11.029Z,17.53
2019-02-09T12:18:41.598Z,17.83
2019-02-09T12:21:11.900Z,18.97
2019-02-09T12:23:42.688Z,17.30
2019-02-09T12:26:13.064Z,17.43
2019-02-09T12:28:43.550Z,17.57
2019-02-09T12:31:13.853Z,17.83
2019-02-09T12:33:44.389Z,17.60
2019-02-09T12:36:14.726Z,15.93
2019-02-09T12:38:45.027Z,16.97
2019-02-09T12:41:15.726Z,17.13
2019-02-09T12:43:46.246Z,15.73
2019-02-09T12:46:16.567Z,16.03
2019-02-09T12:48:47.266Z,17.07
2019-02-09T12:51:17.940Z,17.63
2019-02-09T12:53:48.325Z,16.20
2019-02-09T12:56:19.758Z,16.80
2019-02-09T12:58:50.066Z,16.87
2019-02-09T13:01:20.867Z,17.73
2019-02-09T13:03:51.321Z,17.27
2019-02-09T13:06:21.657Z,19.57
2019-02-09T13:08:52.423Z,16.93
2019-02-09T13:11:23.246Z,19.50
2019-02-09T13:13:53.527Z,20.03
2019-02-09T13:16:24.357Z,19.37
2019-02-09T13:18:55.060Z,19.43
2019-02-09T13:21:25.655Z,18.27
2019-02-09T13:23:56.128Z,19.97
2019-02-09T13:26:26.823Z,25.63
2019-02-09T13:28:57.525Z,20.90
2019-02-09T13:31:28.175Z,19.27
2019-02-09T13:33:58.557Z,20.13
2019-02-09T13:36:29.231Z,18.40
2019-02-09T13:38:59.999Z,16.87
2019-02-09T13:41:30.678Z,17.03
2019-02-09T13:44:01.249Z,18.93
2019-02-09T13:46:31.951Z,17.47
2019-02-09T13:49:02.342Z,53.40
2019-02-09T13:51:32.731Z,31.97
2019-02-09T13:54:03.876Z,20.33
2019-02-09T13:56:34.156Z,25.93
2019-02-09T13:59:05.397Z,22.50
2019-02-09T14:01:35.759Z,20.93
2019-02-09T14:04:06.342Z,22.33
2019-02-09T14:06:36.900Z,21.53
2019-02-09T14:09:08.743Z,20.63
2019-02-09T14:11:40.136Z,21.07
2019-02-09T14:14:10.684Z,20.97
2019-02-09T14:16:41.091Z,19.53
2019-02-09T14:19:11.670Z,29.03
2019-02-09T14:21:42.267Z,22.67
2019-02-09T14:24:12.935Z,21.67
2019-02-09T14:26:43.329Z,20.10
2019-02-09T14:29:14.214Z,20.47
2019-02-09T14:31:44.525Z,21.23
2019-02-09T14:34:15.347Z,21.67
2019-02-09T14:36:45.653Z,21.13
2019-02-09T14:39:15.991Z,20.90
2019-02-09T14:41:46.537Z,19.47
2019-02-09T14:44:17.059Z,21.03
2019-02-09T14:46:47.379Z,20.43
2019-02-09T14:49:18.129Z,20.60
2019-02-09T14:51:48.756Z,20.60
2019-02-09T14:54:19.179Z,22.47
2019-02-09T14:56:49.709Z,23.63
2019-02-09T14:59:20.395Z,21.80
2019-02-09T15:01:50.806Z,23.83
2019-02-09T15:04:21.389Z,25.03
2019-02-09T15:06:52.471Z,24.50
2019-02-09T15:09:24.356Z,24.13
2019-02-09T15:11:55.131Z,27.87
2019-02-09T15:14:25.548Z,26.43
2019-02-09T15:16:56.991Z,24.53
2019-02-09T15:19:36.430Z,25.27
2019-02-09T15:22:07.399Z,21.67
2019-02-09T15:24:37.933Z,22.53
2019-02-09T15:27:08.523Z,23.77
2019-02-09T15:29:39.035Z,22.73
2019-02-09T15:32:09.325Z,21.90
2019-02-09T15:34:39.889Z,25.17
2019-02-09T15:37:10.534Z,27.47
2019-02-09T15:39:41.204Z,26.43
2019-02-09T15:42:11.490Z,24.87
2019-02-09T15:44:41.977Z,26.50
2019-02-09T15:47:12.662Z,25.87
2019-02-09T15:49:42.996Z,23.43
2019-02-09T15:52:13.433Z,30.80
2019-02-09T15:54:44.099Z,31.17
2019-02-09T15:57:14.381Z,29.83
2019-02-09T15:59:45.023Z,33.63
2019-02-09T16:02:15.741Z,39.57
2019-02-09T16:04:46.091Z,41.67
2019-02-09T16:07:16.733Z,46.53
2019-02-09T16:09:47.045Z,50.00
2019-02-09T16:12:17.330Z,54.03
2019-02-09T16:14:48.154Z,52.43
2019-02-09T16:17:18.506Z,55.17
2019-02-09T16:19:48.923Z,49.43
2019-02-09T16:22:19.587Z,51.83
2019-02-09T16:24:50.481Z,44.00
2019-02-09T16:27:20.762Z,46.00
2019-02-09T16:29:51.571Z,47.70
2019-02-09T16:32:22.203Z,49.00
2019-02-09T16:34:52.634Z,47.63
2019-02-09T16:37:23.381Z,46.27
2019-02-09T16:39:53.979Z,47.50
2019-02-09T16:42:24.396Z,46.33
2019-02-09T16:44:54.825Z,43.87
2019-02-09T16:47:25.497Z,43.03
2019-02-09T16:49:56.153Z,46.60
2019-02-09T16:52:26.527Z,52.60
2019-02-09T16:54:57.176Z,44.83
2019-02-09T16:57:27.488Z,43.20
2019-02-09T16:59:57.849Z,39.23
2019-02-09T17:02:28.513Z,45.80
2019-02-09T17:04:59.266Z,40.97
2019-02-09T17:07:29.537Z,36.00
2019-02-09T17:10:00.463Z,37.40
2019-02-09T17:12:30.751Z,43.33
2019-02-09T17:15:01.551Z,48.70
2019-02-09T17:17:32.017Z,44.20
2019-02-09T17:20:02.545Z,44.17
2019-02-09T17:22:33.309Z,49.10
2019-02-09T17:25:03.859Z,51.93
2019-02-09T17:27:34.144Z,39.40
2019-02-09T17:30:06.777Z,39.00
2019-02-09T17:32:37.358Z,38.87
2019-02-09T17:35:08.474Z,44.20
2019-02-09T17:37:39.255Z,42.37
2019-02-09T17:40:12.146Z,42.87
2019-02-09T17:42:42.563Z,44.73
2019-02-09T17:45:16.359Z,49.93
2019-02-09T17:47:47.819Z,42.27
2019-02-09T17:50:18.496Z,39.97
2019-02-09T17:52:48.878Z,38.33
2019-02-09T17:55:19.766Z,42.90
2019-02-09T17:57:50.457Z,42.83
2019-02-09T18:00:26.925Z,41.50
2019-02-09T18:02:57.237Z,38.77
2019-02-09T18:05:27.617Z,39.30
2019-02-09T18:07:58.418Z,42.60
2019-02-09T18:10:28.752Z,36.23
2019-02-09T18:12:59.040Z,36.20
2019-02-09T18:15:29.499Z,37.93
2019-02-09T18:18:00.128Z,38.50
2019-02-09T18:20:30.667Z,37.53
2019-02-09T18:23:00.944Z,32.80
2019-02-09T18:25:31.309Z,44.00
2019-02-09T18:28:01.838Z,45.07
2019-02-09T18:30:32.367Z,40.37
2019-02-09T18:33:02.655Z,41.90
2019-02-09T18:35:33.627Z,35.07
2019-02-09T18:38:04.096Z,30.47
2019-02-09T18:40:34.448Z,31.60
2019-02-09T18:43:05.334Z,18.43
2019-02-09T18:45:35.814Z,19.67
2019-02-09T18:48:06.886Z,14.93
2019-02-09T18:50:37.257Z,16.40
2019-02-09T18:53:07.647Z,14.60
2019-02-09T18:55:38.426Z,14.03
2019-02-09T18:58:08.766Z,14.73
2019-02-09T19:00:39.364Z,13.47
2019-02-09T19:03:10.466Z,21.03
2019-02-09T19:05:41.034Z,18.37
2019-02-09T19:08:11.528Z,14.10
2019-02-09T19:10:42.205Z,13.67
2019-02-09T19:13:12.802Z,15.13
2019-02-09T19:15:43.209Z,17.40
2019-02-09T19:18:13.578Z,16.73
2019-02-09T19:20:47.104Z,19.20
2019-02-09T19:23:17.902Z,19.87
2019-02-09T19:25:48.870Z,21.20
2019-02-09T19:28:19.198Z,23.80
2019-02-09T19:30:49.827Z,23.70
2019-02-09T19:33:20.410Z,24.67
2019-02-09T19:35:51.039Z,29.57
2019-02-09T19:38:21.693Z,27.83
2019-02-09T19:40:52.368Z,34.73
2019-02-09T19:43:22.681Z,51.40
2019-02-09T19:45:53.128Z,38.17
2019-02-09T19:48:23.821Z,46.73
2019-02-09T19:50:54.143Z,41.83
2019-02-09T19:53:24.875Z,34.90
2019-02-09T19:55:55.266Z,35.80
2019-02-09T19:58:26.014Z,38.07
2019-02-09T20:00:56.902Z,33.43
2019-02-09T20:03:27.212Z,25.90
2019-02-09T20:05:57.761Z,28.43
2019-02-09T20:08:28.495Z,28.63
2019-02-09T20:10:58.821Z,27.77
2019-02-09T20:13:29.120Z,34.93
2019-02-09T20:16:00.168Z,31.83
2019-02-09T20:18:30.442Z,31.53
2019-02-09T20:21:00.790Z,32.57
2019-02-09T20:23:31.520Z,31.73
2019-02-09T20:26:02.143Z,35.00
2019-02-09T20:28:32.723Z,35.90
2019-02-09T20:31:04.234Z,37.23
2019-02-09T20:33:34.531Z,36.67
2019-02-09T20:36:05.676Z,37.57
2019-02-09T20:38:35.962Z,37.10
2019-02-09T20:41:07.951Z,50.43
2019-02-09T20:43:39.869Z,89.13
2019-02-09T20:46:10.287Z,63.87
2019-02-09T20:48:40.554Z,66.33
2019-02-09T20:51:11.040Z,65.60
2019-02-09T20:53:41.779Z,52.17
2019-02-09T20:56:12.175Z,74.57
2019-02-09T20:58:43.040Z,77.57
2019-02-09T21:01:13.706Z,72.87
2019-02-09T21:03:44.043Z,76.63
2019-02-09T21:06:14.439Z,67.80
2019-02-09T21:08:45.117Z,63.13
2019-02-09T21:11:15.427Z,73.50
2019-02-09T21:13:45.754Z,57.93
2019-02-09T21:16:16.367Z,59.27
2019-02-09T21:18:46.965Z,62.60
2019-02-09T21:21:17.252Z,75.53
2019-02-09T21:23:47.996Z,72.37
2019-02-09T21:26:18.531Z,70.83
2019-02-09T21:28:49.355Z,60.73
2019-02-09T21:31:19.633Z,64.60
2019-02-09T21:33:49.983Z,59.77
2019-02-09T21:36:20.600Z,59.97
2019-02-09T21:38:51.299Z,66.67
2019-02-09T21:41:21.585Z,67.37
2019-02-09T21:43:52.458Z,68.30
2019-02-09T21:46:22.779Z,67.57
2019-02-09T21:48:53.121Z,71.47
2019-02-09T21:51:23.847Z,65.13
2019-02-09T21:53:54.546Z,67.03
2019-02-09T21:56:24.924Z,71.60
2019-02-09T21:58:55.503Z,95.27
2019-02-09T22:01:25.776Z,80.37
2019-02-09T22:03:56.694Z,134.43
2019-02-09T22:06:27.256Z,100.37
2019-02-09T22:08:57.828Z,81.87
2019-02-09T22:11:28.395Z,59.60
2019-02-09T22:13:58.937Z,56.07
2019-02-09T22:16:29.222Z,65.47
2019-02-09T22:19:00.073Z,61.27
2019-02-09T22:21:30.857Z,55.63
2019-02-09T22:24:01.364Z,52.87
2019-02-09T22:26:32.125Z,54.57
2019-02-09T22:29:03.054Z,62.80
2019-02-09T22:31:33.332Z,59.63
2019-02-09T22:34:04.382Z,60.47
2019-02-09T22:36:37.236Z,55.10
2019-02-09T22:39:09.220Z,55.40
2019-02-09T22:41:39.601Z,54.67
2019-02-09T22:44:09.922Z,51.83
2019-02-09T22:46:40.356Z,46.47
2019-02-09T22:49:14.046Z,50.73
2019-02-09T22:51:44.359Z,48.00
2019-02-09T22:54:14.691Z,52.07
2019-02-09T22:56:45.272Z,67.40
2019-02-09T22:59:15.556Z,52.63
2019-02-09T23:01:51.083Z,51.63
2019-02-09T23:05:05.347Z,54.97
2019-02-09T23:07:36.079Z,54.83
2019-02-09T23:10:10.792Z,56.30
2019-02-09T23:12:48.345Z,52.67
2019-02-09T23:15:13.264Z,57.03
2019-02-09T23:17:43.794Z,50.33
2019-02-09T23:20:14.583Z,51.50
2019-02-09T23:22:45.255Z,51.13
2019-02-09T23:25:15.534Z,48.43
2019-02-09T23:27:45.967Z,50.83
2019-02-09T23:30:16.771Z,60.17
2019-02-09T23:32:47.120Z,57.10
2019-02-09T23:35:17.410Z,58.07
2019-02-09T23:37:47.980Z,49.47
2019-02-09T23:40:18.526Z,51.13
2019-02-09T23:42:50.324Z,46.57
2019-02-09T23:45:20.624Z,49.60
2019-02-09T23:47:51.373Z,49.63
2019-02-09T23:50:22.173Z,53.37
2019-02-09T23:52:52.520Z,50.77
2019-02-09T23:55:22.799Z,48.57
2019-02-09T23:57:53.495Z,51.33
